Airfield :
LOGIN :

Register | Disclaimer

   EN    FR    IT 

 










Legend :    VFR   Marginal VFR   IFR   Intensive IFR   Very Intensive IFR
Visi :
Ceiling :
>= 8 km
>= 3000ft
5 to 8 km
1000 to 3000 ft
1500m to 5 km
500 to 1000 ft
800 to 1500m
200 to 500 ft
< 800m
< 200 ft
Symbols :   Thunderstorms  Fog  Heavy snow  Heavy precipitations  Wind > 20 kt
SIGMETs :     Misc.  Thunderstorms  Icing  Turbulence  Mountain Waves  Volcanic Ashes






- Airport Elevation : 16 ft
- IATA code : EAS


LESO - San Sebastian Fuenterrabia

CURRENT METAR :
  • 141900Z 24003KT 200V340 9999 FEW025 SCT038 18/15 Q1010

EXPIRED METARs :
  • 141830Z VRB02KT 9999 SCT020 SCT030 BKN040 18/15 Q1010
  • 141800Z VRB02KT 9999 SCT020 BKN024 BKN032 18/15 Q1009
  • 141730Z 34003KT 290V010 9999 SCT020 BKN026 BKN033 18/14 Q1009
  • 141700Z 02003KT 320V050 9999 SCT025 SCT030TCU 18/15 Q1008
  • 141630Z 34005KT 300V020 9999 SCT015 BKN019 19/15 Q1008

TAF TAF LESO
Valid from the 14 at 18:00 until the 15 at 18:00 UTC


141700Z 1418/1518 27009KT 9999 BKN025 TX20/1514Z TN12/1506Z
TEMPO 1418/1503 27015G25KT
TEMPO 1418/1506 3000 SHRA RA BKN012 SCT030TCU
PROB40
TEMPO 1418/1506 3000 SHRA TS SCT030CB
BECMG 1503/1506 21010KT
PROB40
TEMPO 1503/1512 24015G25KT



MET'MAP, your aeronautical weather chart ! - Copyright ORBIFLY December 2007 - Disclaimer

ORBIFLY MET'MAP TEAM :

Programming & Development : Alexandra Zaïnal
Concept & Development : Baudouin d'Aumeries
Co-Development & Prog : Marc-Olivier Méhu
Technical & hardware support : Manuel Goepfert

Contact : metmap@orbifly.com




SOURCES & CREDITS :

   NOAA